createdAt,value
2017-12-20T00:02:11.327Z,7.11
2017-12-20T00:04:39.579Z,7.13
2017-12-20T00:07:07.879Z,7.15
2017-12-20T00:09:36.134Z,7.11
2017-12-20T00:12:04.430Z,7.12
2017-12-20T00:14:32.685Z,7.13
2017-12-20T00:17:00.967Z,7.15
2017-12-20T00:19:29.757Z,7.19
2017-12-20T00:21:58.031Z,7.19
2017-12-20T00:24:26.319Z,7.17
2017-12-20T00:26:54.579Z,7.33
2017-12-20T00:29:22.880Z,7.44
2017-12-20T00:31:51.189Z,7.52
2017-12-20T00:34:19.480Z,7.53
2017-12-20T00:36:47.751Z,7.40
2017-12-20T00:39:16.079Z,7.40
2017-12-20T00:41:44.356Z,7.43
2017-12-20T00:44:12.616Z,7.45
2017-12-20T00:46:40.927Z,7.42
2017-12-20T00:49:09.188Z,7.37
2017-12-20T00:51:37.491Z,7.30
2017-12-20T00:54:05.757Z,7.16
2017-12-20T00:56:34.166Z,7.24
2017-12-20T00:59:02.703Z,7.30
2017-12-20T01:01:30.996Z,7.36
2017-12-20T01:03:59.271Z,7.37
2017-12-20T01:06:27.559Z,7.19
2017-12-20T01:08:55.846Z,7.15
2017-12-20T01:11:24.131Z,7.18
2017-12-20T01:13:52.607Z,7.21
2017-12-20T01:16:20.861Z,7.11
2017-12-20T01:18:49.140Z,7.09
2017-12-20T01:21:17.397Z,7.18
2017-12-20T01:23:45.683Z,7.21
2017-12-20T01:26:13.963Z,7.12
2017-12-20T01:28:42.251Z,7.15
2017-12-20T01:31:10.511Z,7.18
2017-12-20T01:33:38.849Z,7.20
2017-12-20T01:36:07.268Z,7.12
2017-12-20T01:38:35.906Z,7.09
2017-12-20T01:41:05.122Z,7.08
2017-12-20T01:43:33.400Z,7.11
2017-12-20T01:46:02.536Z,7.11
2017-12-20T01:48:30.827Z,7.11
2017-12-20T01:50:59.104Z,7.14
2017-12-20T01:53:27.348Z,7.11
2017-12-20T01:55:55.639Z,7.15
2017-12-20T01:58:23.903Z,7.23
2017-12-20T02:00:52.247Z,7.21
2017-12-20T02:03:20.501Z,7.21
2017-12-20T02:05:48.752Z,7.19
2017-12-20T02:08:17.031Z,7.24
2017-12-20T02:10:45.293Z,7.15
2017-12-20T02:13:13.564Z,7.20
2017-12-20T02:15:41.836Z,7.39
2017-12-20T02:18:10.128Z,7.42
2017-12-20T02:20:38.386Z,7.51
2017-12-20T02:23:06.689Z,7.39
2017-12-20T02:25:34.950Z,7.38
2017-12-20T02:28:03.216Z,7.50
2017-12-20T02:30:31.509Z,7.47
2017-12-20T02:32:59.769Z,7.44
2017-12-20T02:35:28.051Z,7.24
2017-12-20T02:37:56.322Z,7.20
2017-12-20T02:40:24.605Z,7.36
2017-12-20T02:42:52.875Z,7.27
2017-12-20T02:45:21.184Z,7.34
2017-12-20T02:47:49.447Z,7.39
2017-12-20T02:50:17.724Z,7.45
2017-12-20T02:52:45.983Z,7.40
2017-12-20T02:55:14.300Z,7.32
2017-12-20T02:57:42.552Z,7.25
2017-12-20T03:00:10.876Z,7.31
2017-12-20T03:02:39.164Z,7.36
2017-12-20T03:05:07.575Z,7.33
2017-12-20T03:07:35.852Z,7.23
2017-12-20T03:10:04.113Z,7.07
2017-12-20T03:12:32.396Z,7.03
2017-12-20T03:15:00.676Z,6.96
2017-12-20T03:17:28.959Z,7.21
2017-12-20T03:19:57.221Z,7.23
2017-12-20T03:22:25.500Z,7.25
2017-12-20T03:24:53.771Z,7.25
2017-12-20T03:27:22.067Z,7.38
2017-12-20T03:29:50.328Z,7.33
2017-12-20T03:32:18.606Z,7.20
2017-12-20T03:34:46.898Z,7.35
2017-12-20T03:37:15.163Z,7.42
2017-12-20T03:39:43.453Z,7.45
2017-12-20T03:42:11.711Z,7.29
2017-12-20T03:44:40.013Z,7.38
2017-12-20T03:47:08.260Z,7.44
2017-12-20T03:49:36.659Z,7.40
2017-12-20T03:52:04.943Z,7.31
2017-12-20T03:54:33.256Z,7.26
2017-12-20T03:57:01.535Z,7.27
2017-12-20T03:59:30.619Z,7.36
2017-12-20T04:01:58.891Z,7.46
2017-12-20T04:04:27.149Z,7.53
2017-12-20T04:06:55.478Z,7.45
2017-12-20T04:09:23.793Z,7.41
2017-12-20T04:11:52.086Z,7.40
2017-12-20T04:14:20.337Z,7.33
2017-12-20T04:16:48.622Z,7.44
2017-12-20T04:19:16.888Z,7.44
2017-12-20T04:21:45.172Z,7.41
2017-12-20T04:24:13.434Z,7.41
2017-12-20T04:26:41.792Z,7.39
2017-12-20T04:29:09.987Z,7.37
2017-12-20T04:31:38.467Z,7.35
2017-12-20T04:34:06.761Z,7.44
2017-12-20T04:36:35.146Z,7.49
2017-12-20T04:39:03.432Z,7.49
2017-12-20T04:41:31.690Z,7.45
2017-12-20T04:43:59.983Z,7.39
2017-12-20T04:46:28.239Z,7.41
2017-12-20T04:48:56.514Z,7.37
2017-12-20T04:51:24.784Z,7.38
2017-12-20T04:53:53.094Z,7.34
2017-12-20T04:56:21.356Z,7.33
2017-12-20T04:58:49.646Z,7.39
2017-12-20T05:01:17.902Z,7.38
2017-12-20T05:03:46.179Z,7.42
2017-12-20T05:06:14.487Z,7.47
2017-12-20T05:08:42.767Z,7.45
2017-12-20T05:11:11.018Z,7.48
2017-12-20T05:13:39.287Z,7.50
2017-12-20T05:16:07.594Z,7.48
2017-12-20T05:18:35.896Z,7.48
2017-12-20T05:21:04.831Z,7.41
2017-12-20T05:23:33.087Z,7.41
2017-12-20T05:26:01.670Z,7.50
2017-12-20T05:28:29.908Z,7.59
2017-12-20T05:30:58.245Z,7.58
2017-12-20T05:33:26.507Z,7.50
2017-12-20T05:35:54.796Z,7.70
2017-12-20T05:38:23.076Z,7.75
2017-12-20T05:40:51.419Z,7.68
2017-12-20T05:43:19.671Z,7.76
2017-12-20T05:45:47.956Z,7.77
2017-12-20T05:48:16.252Z,7.67
2017-12-20T05:50:44.536Z,7.67
2017-12-20T05:53:12.829Z,7.59
2017-12-20T05:55:41.090Z,7.51
2017-12-20T05:58:09.455Z,7.42
2017-12-20T06:00:37.956Z,7.47
2017-12-20T06:03:06.271Z,7.55
2017-12-20T06:05:34.526Z,7.58
2017-12-20T06:08:02.859Z,7.64
2017-12-20T06:10:31.147Z,7.64
2017-12-20T06:12:59.442Z,7.74
2017-12-20T06:15:27.726Z,7.70
2017-12-20T06:17:56.001Z,7.72
2017-12-20T06:20:24.338Z,7.69
2017-12-20T06:22:52.620Z,7.76
2017-12-20T06:25:20.922Z,7.68
2017-12-20T06:27:49.188Z,7.65
2017-12-20T06:30:17.488Z,7.64
2017-12-20T06:32:45.760Z,7.63
2017-12-20T06:35:14.095Z,7.51
2017-12-20T06:37:42.403Z,7.49
2017-12-20T06:40:10.666Z,7.53
2017-12-20T06:42:38.960Z,7.56
2017-12-20T06:45:07.391Z,7.61
2017-12-20T06:47:35.649Z,7.73
2017-12-20T06:50:04.528Z,7.77
2017-12-20T06:52:32.823Z,7.70
2017-12-20T06:55:01.099Z,7.62
2017-12-20T06:57:29.387Z,7.63
2017-12-20T06:59:57.650Z,7.55
2017-12-20T07:02:25.942Z,7.52
2017-12-20T07:04:54.267Z,7.34
2017-12-20T07:07:22.491Z,7.48
2017-12-20T07:09:50.791Z,7.44
2017-12-20T07:12:19.105Z,7.50
2017-12-20T07:14:47.372Z,7.54
2017-12-20T07:17:15.665Z,7.55
2017-12-20T07:19:44.243Z,7.54
2017-12-20T07:22:12.548Z,7.52
2017-12-20T07:24:40.907Z,7.50
2017-12-20T07:27:09.160Z,7.56
2017-12-20T07:29:37.459Z,7.62
2017-12-20T07:32:05.768Z,7.70
2017-12-20T07:34:34.068Z,7.67
2017-12-20T07:37:02.339Z,7.71
2017-12-20T07:39:30.634Z,7.65
2017-12-20T07:41:58.999Z,7.58
2017-12-20T07:44:27.299Z,7.61
2017-12-20T07:46:55.571Z,7.53
2017-12-20T07:49:23.855Z,7.49
2017-12-20T07:51:52.119Z,7.53
2017-12-20T07:54:20.415Z,7.52
2017-12-20T07:56:49.022Z,7.52
2017-12-20T07:59:17.969Z,7.57
2017-12-20T08:01:46.272Z,7.56
2017-12-20T08:04:14.584Z,7.69
2017-12-20T08:06:42.898Z,7.67
2017-12-20T08:09:11.180Z,7.62
2017-12-20T08:11:39.469Z,7.76
2017-12-20T08:14:07.732Z,7.79
2017-12-20T08:16:36.082Z,7.80
2017-12-20T08:19:04.386Z,7.89
2017-12-20T08:21:32.693Z,7.98
2017-12-20T08:24:01.056Z,7.79
2017-12-20T08:26:29.370Z,7.80
2017-12-20T08:28:57.651Z,7.85
2017-12-20T08:31:26.131Z,7.85
2017-12-20T08:33:54.467Z,7.72
2017-12-20T08:36:22.767Z,7.79
2017-12-20T08:38:51.047Z,7.82
2017-12-20T08:41:19.310Z,7.83
2017-12-20T08:43:47.718Z,7.82
2017-12-20T08:46:15.972Z,7.74
2017-12-20T08:48:44.286Z,7.79
2017-12-20T08:51:13.071Z,7.81
2017-12-20T08:53:41.319Z,7.84
2017-12-20T08:56:09.594Z,7.73
2017-12-20T08:58:37.967Z,7.75
2017-12-20T09:01:06.259Z,8.00
2017-12-20T09:03:34.625Z,7.91
2017-12-20T09:06:02.916Z,7.84
2017-12-20T09:08:31.192Z,7.85
2017-12-20T09:10:59.501Z,7.89
2017-12-20T09:13:27.777Z,7.88
2017-12-20T09:15:56.629Z,7.92
2017-12-20T09:18:24.864Z,8.00
2017-12-20T09:20:53.220Z,8.04
2017-12-20T09:23:21.458Z,7.94
2017-12-20T09:25:49.720Z,7.92
2017-12-20T09:28:18.022Z,7.92
2017-12-20T09:30:46.583Z,7.95
2017-12-20T09:33:14.924Z,7.92
2017-12-20T09:35:44.127Z,7.89
2017-12-20T09:38:12.468Z,7.91
2017-12-20T09:40:40.745Z,7.95
2017-12-20T09:43:09.094Z,7.95
2017-12-20T09:45:37.389Z,7.93
2017-12-20T09:48:05.665Z,8.04
2017-12-20T09:50:34.215Z,7.99
2017-12-20T09:53:02.543Z,8.03
2017-12-20T09:55:30.888Z,8.07
2017-12-20T09:57:59.121Z,8.04
2017-12-20T10:00:27.406Z,7.98
2017-12-20T10:02:55.692Z,8.07
2017-12-20T10:05:24.015Z,7.96
2017-12-20T10:07:52.302Z,8.08
2017-12-20T10:10:20.708Z,8.13
2017-12-20T10:12:48.996Z,8.14
2017-12-20T10:15:17.299Z,8.20
2017-12-20T10:17:45.792Z,8.29
2017-12-20T10:20:14.124Z,8.34
2017-12-20T10:22:42.447Z,8.32
2017-12-20T10:25:10.727Z,8.44
2017-12-20T10:27:39.083Z,8.57
2017-12-20T10:30:07.384Z,8.57
2017-12-20T10:32:35.679Z,8.53
2017-12-20T10:35:04.915Z,8.14
2017-12-20T10:37:33.195Z,8.36
2017-12-20T10:40:01.501Z,8.44
2017-12-20T10:42:29.779Z,8.46
2017-12-20T10:44:58.058Z,8.52
2017-12-20T10:47:26.407Z,8.45
2017-12-20T10:49:54.726Z,8.63
2017-12-20T10:52:23.005Z,8.63
2017-12-20T10:54:51.338Z,8.61
2017-12-20T10:57:19.665Z,8.61
2017-12-20T10:59:48.061Z,8.51
2017-12-20T11:02:16.336Z,8.64
2017-12-20T11:04:44.689Z,8.70
2017-12-20T11:07:12.939Z,8.68
2017-12-20T11:09:41.265Z,8.61
2017-12-20T11:12:09.537Z,8.55
2017-12-20T11:14:39.043Z,8.48
2017-12-20T11:17:07.325Z,8.37
2017-12-20T11:19:35.580Z,8.43
2017-12-20T11:22:03.866Z,8.39
2017-12-20T11:24:32.158Z,8.35
2017-12-20T11:27:00.465Z,8.45
2017-12-20T11:29:28.727Z,8.53
2017-12-20T11:31:57.046Z,8.55
2017-12-20T11:34:25.315Z,8.60
2017-12-20T11:36:53.621Z,8.66
2017-12-20T11:39:22.004Z,8.78
2017-12-20T11:41:50.274Z,8.84
2017-12-20T11:44:19.646Z,8.81
2017-12-20T11:46:47.961Z,8.72
2017-12-20T11:49:16.278Z,8.61
2017-12-20T11:51:44.530Z,8.77
2017-12-20T11:54:12.831Z,8.80
2017-12-20T11:56:41.105Z,8.07
2017-12-20T11:59:09.548Z,8.52
2017-12-20T12:01:37.823Z,8.57
2017-12-20T12:04:07.025Z,8.48
2017-12-20T12:06:35.350Z,8.48
2017-12-20T12:09:03.576Z,8.53
2017-12-20T12:11:31.884Z,8.55
2017-12-20T12:14:00.152Z,8.53
2017-12-20T12:16:28.460Z,8.58
2017-12-20T12:18:56.705Z,8.46
2017-12-20T12:21:24.998Z,8.46
2017-12-20T12:23:53.274Z,8.61
2017-12-20T12:26:21.563Z,8.66
2017-12-20T12:28:49.819Z,8.64
2017-12-20T12:31:18.251Z,8.67
2017-12-20T12:33:46.556Z,8.73
2017-12-20T12:36:14.817Z,8.68
2017-12-20T12:38:43.953Z,8.58
2017-12-20T12:41:12.233Z,8.69
2017-12-20T12:43:40.969Z,8.77
2017-12-20T12:46:09.688Z,8.77
2017-12-20T12:48:37.981Z,8.78
2017-12-20T12:51:06.327Z,8.78
2017-12-20T12:53:34.761Z,8.87
2017-12-20T12:56:03.037Z,8.93
2017-12-20T12:58:31.339Z,8.98
2017-12-20T13:00:59.615Z,8.94
2017-12-20T13:03:27.942Z,8.80
2017-12-20T13:05:56.389Z,8.87
2017-12-20T13:08:24.654Z,8.87
2017-12-20T13:10:52.971Z,8.74
2017-12-20T13:13:21.215Z,8.75
2017-12-20T13:15:49.527Z,8.79
2017-12-20T13:18:17.803Z,8.87
2017-12-20T13:20:46.206Z,8.97
2017-12-20T13:23:14.490Z,8.82
2017-12-20T13:25:43.108Z,8.89
2017-12-20T13:28:11.367Z,8.92
2017-12-20T13:30:39.759Z,8.99
2017-12-20T13:33:08.042Z,8.99
2017-12-20T13:35:36.313Z,8.88
2017-12-20T13:38:05.537Z,8.83
2017-12-20T13:40:33.819Z,8.69
2017-12-20T13:43:02.127Z,8.79
2017-12-20T13:45:31.628Z,8.87
2017-12-20T13:47:59.923Z,8.84
2017-12-20T13:50:28.261Z,8.94
2017-12-20T13:52:56.538Z,8.79
2017-12-20T13:55:24.825Z,8.49
2017-12-20T13:57:53.181Z,8.61
2017-12-20T14:00:21.465Z,8.61
2017-12-20T14:02:50.024Z,8.46
2017-12-20T14:05:18.329Z,8.38
2017-12-20T14:07:46.592Z,8.47
2017-12-20T14:10:14.875Z,8.37
2017-12-20T14:12:43.176Z,8.55
2017-12-20T14:15:11.527Z,8.69
2017-12-20T14:17:39.805Z,8.68
2017-12-20T14:20:08.088Z,8.55
2017-12-20T14:22:36.431Z,8.65
2017-12-20T14:25:05.128Z,8.74
2017-12-20T14:27:33.439Z,8.73
2017-12-20T14:30:01.745Z,8.71
2017-12-20T14:32:30.035Z,8.77
2017-12-20T14:34:58.314Z,8.92
2017-12-20T14:37:26.657Z,8.91
2017-12-20T14:39:54.908Z,8.98
2017-12-20T14:42:23.183Z,8.88
2017-12-20T14:44:51.476Z,8.99
2017-12-20T14:47:19.775Z,8.93
2017-12-20T14:49:48.083Z,8.85
2017-12-20T14:52:16.463Z,8.88
2017-12-20T14:54:44.731Z,8.96
2017-12-20T14:57:13.026Z,8.86
2017-12-20T14:59:41.335Z,8.87
2017-12-20T15:02:09.817Z,8.86
2017-12-20T15:04:38.351Z,8.83
2017-12-20T15:07:06.701Z,8.74
2017-12-20T15:09:35.021Z,8.79
2017-12-20T15:12:03.309Z,8.86
2017-12-20T15:14:31.595Z,8.97
2017-12-20T15:16:59.864Z,8.98
2017-12-20T15:19:28.152Z,8.86
2017-12-20T15:21:56.457Z,8.66
2017-12-20T15:24:24.715Z,8.48
2017-12-20T15:26:52.983Z,8.52
2017-12-20T15:29:21.326Z,8.63
2017-12-20T15:31:49.568Z,8.61
2017-12-20T15:34:18.066Z,8.69
2017-12-20T15:36:46.297Z,8.57
2017-12-20T15:39:14.767Z,8.40
2017-12-20T15:41:43.039Z,8.51
2017-12-20T15:44:11.382Z,8.56
2017-12-20T15:46:39.658Z,8.64
2017-12-20T15:49:07.948Z,8.63
2017-12-20T15:51:36.277Z,8.71
2017-12-20T15:54:04.571Z,8.64
2017-12-20T15:56:32.863Z,8.63
2017-12-20T15:59:01.455Z,8.70
2017-12-20T16:01:29.747Z,8.72
2017-12-20T16:03:58.714Z,8.87
2017-12-20T16:06:26.977Z,8.88
2017-12-20T16:08:55.264Z,8.80
2017-12-20T16:11:23.538Z,8.69
2017-12-20T16:13:51.832Z,8.55
2017-12-20T16:16:20.270Z,8.54
2017-12-20T16:18:48.847Z,8.62
2017-12-20T16:21:17.642Z,8.76
2017-12-20T16:23:46.169Z,8.87
2017-12-20T16:26:14.518Z,8.73
2017-12-20T16:28:42.808Z,8.74
2017-12-20T16:31:11.121Z,8.68
2017-12-20T16:33:39.416Z,8.63
2017-12-20T16:36:07.740Z,8.70
2017-12-20T16:38:36.101Z,8.87
2017-12-20T16:41:05.071Z,8.82
2017-12-20T16:43:33.481Z,8.82
2017-12-20T16:46:01.735Z,8.79
2017-12-20T16:48:30.029Z,8.78
2017-12-20T16:50:58.347Z,8.85
2017-12-20T16:53:38.416Z,8.87
2017-12-20T16:56:06.773Z,8.97
2017-12-20T16:58:35.084Z,8.83
2017-12-20T17:01:03.356Z,8.81
2017-12-20T17:03:32.375Z,8.82
2017-12-20T17:06:00.669Z,8.90
2017-12-20T17:08:28.988Z,8.94
2017-12-20T17:10:57.239Z,8.91
2017-12-20T17:13:25.807Z,8.90
2017-12-20T17:15:54.152Z,8.88
2017-12-20T17:18:22.509Z,8.79
2017-12-20T17:20:50.810Z,8.80
2017-12-20T17:23:19.075Z,8.55
2017-12-20T17:25:47.379Z,8.67
2017-12-20T17:28:15.672Z,8.70
2017-12-20T17:30:43.983Z,8.69
2017-12-20T17:33:12.249Z,8.76
2017-12-20T17:35:40.545Z,8.67
2017-12-20T17:38:09.228Z,8.65
2017-12-20T17:40:37.530Z,8.61
2017-12-20T17:43:05.805Z,8.57
2017-12-20T17:45:34.115Z,8.51
2017-12-20T17:48:02.463Z,8.52
2017-12-20T17:50:30.828Z,8.54
2017-12-20T17:52:59.767Z,8.55
2017-12-20T17:55:28.104Z,8.54
2017-12-20T17:57:56.468Z,8.53
2017-12-20T18:00:24.799Z,8.59
2017-12-20T18:02:53.112Z,8.65
2017-12-20T18:05:21.388Z,8.76
2017-12-20T18:07:49.679Z,8.86
2017-12-20T18:10:17.969Z,8.91
2017-12-20T18:12:46.335Z,9.02
2017-12-20T18:15:14.609Z,9.01
2017-12-20T18:17:42.950Z,9.05
2017-12-20T18:20:11.239Z,8.93
2017-12-20T18:22:39.540Z,8.89
2017-12-20T18:25:07.907Z,8.82
2017-12-20T18:27:36.149Z,8.67
2017-12-20T18:30:04.924Z,8.77
2017-12-20T18:32:33.188Z,8.77
2017-12-20T18:35:01.469Z,8.75
2017-12-20T18:37:29.769Z,8.77
2017-12-20T18:39:58.085Z,8.84
2017-12-20T18:42:26.369Z,8.88
2017-12-20T18:44:54.648Z,8.91
2017-12-20T18:47:23.004Z,8.91
2017-12-20T18:49:51.272Z,8.91
2017-12-20T18:52:19.584Z,8.90
2017-12-20T18:54:47.884Z,9.04
2017-12-20T18:57:16.174Z,8.89
2017-12-20T18:59:44.760Z,8.95
2017-12-20T19:02:13.074Z,9.09
2017-12-20T19:04:41.387Z,9.13
2017-12-20T19:07:09.723Z,9.26
2017-12-20T19:09:38.024Z,9.22
2017-12-20T19:12:06.328Z,9.18
2017-12-20T19:14:34.818Z,9.21
2017-12-20T19:17:03.164Z,9.19
2017-12-20T19:19:31.423Z,9.15
2017-12-20T19:21:59.748Z,9.19
2017-12-20T19:24:28.222Z,9.32
2017-12-20T19:26:56.595Z,9.16
2017-12-20T19:29:26.319Z,8.93
2017-12-20T19:31:54.642Z,9.01
2017-12-20T19:34:22.921Z,8.95
2017-12-20T19:36:51.200Z,8.93
2017-12-20T19:39:20.228Z,8.80
2017-12-20T19:41:48.508Z,8.77
2017-12-20T19:44:16.851Z,8.78
2017-12-20T19:46:45.205Z,8.89
2017-12-20T19:49:13.487Z,8.92
2017-12-20T19:51:41.812Z,8.95
2017-12-20T19:54:10.146Z,9.02
2017-12-20T19:56:38.400Z,9.04
2017-12-20T19:59:06.912Z,9.09
2017-12-20T20:01:35.180Z,8.98
2017-12-20T20:04:03.466Z,8.91
2017-12-20T20:06:31.834Z,8.85
2017-12-20T20:09:00.138Z,8.94
2017-12-20T20:11:28.431Z,8.99
2017-12-20T20:13:56.757Z,9.09
2017-12-20T20:16:25.042Z,9.10
2017-12-20T20:18:53.346Z,8.95
2017-12-20T20:21:21.686Z,8.88
2017-12-20T20:23:49.993Z,8.90
2017-12-20T20:26:18.253Z,8.93
2017-12-20T20:28:46.553Z,8.93
2017-12-20T20:31:14.851Z,8.98
2017-12-20T20:33:43.153Z,8.93
2017-12-20T20:36:11.438Z,8.96
2017-12-20T20:38:39.745Z,8.86
2017-12-20T20:41:08.063Z,8.84
2017-12-20T20:43:36.359Z,8.89
2017-12-20T20:46:05.037Z,8.87
2017-12-20T20:48:33.336Z,8.95
2017-12-20T20:51:01.602Z,8.87
2017-12-20T20:53:30.212Z,9.00
2017-12-20T20:55:58.602Z,9.03
2017-12-20T20:58:26.902Z,9.12
2017-12-20T21:00:55.218Z,9.16
2017-12-20T21:03:23.485Z,9.18
2017-12-20T21:05:51.815Z,9.08
2017-12-20T21:08:20.164Z,9.09
2017-12-20T21:10:48.487Z,9.00
2017-12-20T21:13:16.777Z,8.82
2017-12-20T21:15:45.106Z,8.64
2017-12-20T21:18:13.444Z,8.69
2017-12-20T21:20:41.772Z,8.78
2017-12-20T21:23:10.080Z,8.91
2017-12-20T21:25:38.365Z,8.87
2017-12-20T21:28:06.648Z,8.78
2017-12-20T21:30:34.980Z,8.62
2017-12-20T21:33:03.319Z,8.75
2017-12-20T21:35:31.596Z,8.53
2017-12-20T21:37:59.900Z,8.75
2017-12-20T21:40:28.147Z,8.78
2017-12-20T21:42:56.451Z,8.88
2017-12-20T21:45:24.723Z,8.98
2017-12-20T21:47:53.039Z,8.84
2017-12-20T21:50:21.309Z,8.94
2017-12-20T21:52:49.615Z,9.02
2017-12-20T21:55:17.896Z,9.05
2017-12-20T21:57:46.172Z,9.01
2017-12-20T22:00:14.532Z,8.80
2017-12-20T22:02:42.804Z,8.64
2017-12-20T22:05:11.101Z,8.66
2017-12-20T22:07:39.405Z,8.63
2017-12-20T22:10:07.751Z,8.69
2017-12-20T22:12:36.012Z,8.73
2017-12-20T22:15:05.009Z,8.85
2017-12-20T22:17:33.295Z,8.89
2017-12-20T22:20:01.594Z,8.95
2017-12-20T22:22:29.881Z,9.04
2017-12-20T22:24:58.178Z,9.05
2017-12-20T22:27:26.451Z,9.08
2017-12-20T22:29:54.740Z,9.04
2017-12-20T22:32:23.037Z,8.83
2017-12-20T22:34:51.327Z,8.91
2017-12-20T22:37:19.620Z,8.93
2017-12-20T22:39:47.932Z,8.99
2017-12-20T22:42:16.215Z,8.92
2017-12-20T22:44:44.483Z,9.01
2017-12-20T22:47:12.786Z,9.02
2017-12-20T22:49:41.068Z,9.10
2017-12-20T22:52:09.356Z,8.93
2017-12-20T22:54:37.626Z,8.92
2017-12-20T22:57:05.920Z,8.89
2017-12-20T22:59:34.215Z,8.94
2017-12-20T23:02:03.011Z,8.93
2017-12-20T23:04:31.383Z,9.00
2017-12-20T23:06:59.660Z,8.89
2017-12-20T23:09:27.946Z,8.89
2017-12-20T23:11:56.223Z,8.78
2017-12-20T23:14:24.579Z,8.90
2017-12-20T23:16:52.833Z,9.00
2017-12-20T23:19:21.107Z,9.00
2017-12-20T23:21:49.409Z,9.04
2017-12-20T23:24:17.686Z,9.09
2017-12-20T23:26:45.967Z,9.12
2017-12-20T23:29:14.286Z,9.01
2017-12-20T23:31:42.591Z,8.96
2017-12-20T23:34:10.846Z,8.90
2017-12-20T23:36:39.141Z,8.84
2017-12-20T23:39:07.415Z,8.97
2017-12-20T23:41:35.723Z,8.90
2017-12-20T23:44:03.980Z,8.89
2017-12-20T23:46:32.276Z,8.87
2017-12-20T23:49:00.601Z,8.71
2017-12-20T23:51:28.928Z,8.77
2017-12-20T23:53:57.193Z,8.72
2017-12-20T23:56:25.449Z,8.66
2017-12-20T23:58:53.754Z,8.50
